Time;durP1;ratioP1;P1;durP2;ratioP2;P2;SDS_P1;SDS_P2;PMS_P1;PMS_P2;Temp;Humidity;BMP_temperature;BMP_pressure;BME280_temperature;BME280_humidity;BME280_pressure;Samples;Min_cycle;Max_cycle;Signal;HPM_P1;HPM_P2
2023/08/01 03:21:26;;;;;;;2.20;2.10;;;;;;;19.58;100.00;99080.61;101483;1292;601453;-60
2023/08/01 03:23:54;;;;;;;1.70;1.60;;;;;;;19.91;100.00;99090.19;103603;1273;61421;-60
2023/08/01 03:26:22;;;;;;;;;;;;;;;19.95;100.00;99088.23;103516;1266;60608;-60
2023/08/01 03:28:49;;;;;;;1.80;1.70;;;;;;;19.95;100.00;99084.80;103936;1270;72484;-60
2023/08/01 03:31:17;;;;;;;2.30;2.20;;;;;;;19.96;100.00;99083.68;103656;1270;69081;-60
2023/08/01 03:33:45;;;;;;;1.90;1.80;;;;;;;19.98;100.00;99086.62;103596;1271;71648;-60
2023/08/01 03:36:13;;;;;;;;;;;;;;;20.01;100.00;99089.45;103920;1264;190230;-60
2023/08/01 03:38:41;;;;;;;4.60;1.80;;;;;;;20.01;100.00;99091.21;103982;1268;59533;-65
2023/08/01 03:41:08;;;;;;;;;;;;;;;19.99;100.00;99085.53;103944;1270;71910;-62
2023/08/01 03:43:36;;;;;;;2.00;1.70;;;;;;;19.96;100.00;99086.27;104028;1285;69716;-62
2023/08/01 03:46:07;;;;;;;1.90;1.80;;;;;;;19.95;100.00;99079.65;103845;1286;72927;-62
2023/08/01 03:48:34;;;;;;;2.10;2.00;;;;;;;19.91;100.00;99084.43;103978;1265;61431;-61
2023/08/01 03:51:03;;;;;;;2.30;2.20;;;;;;;19.88;100.00;99079.45;103927;1267;60000;-62
2023/08/01 03:53:31;;;;;;;3.50;2.40;;;;;;;19.85;100.00;99084.42;103977;1264;73287;-61
2023/08/01 03:55:59;;;;;;;2.70;2.60;;;;;;;19.87;100.00;99089.67;103970;1269;69094;-61
2023/08/01 03:58:28;;;;;;;2.70;2.50;;;;;;;19.85;100.00;99090.35;103653;1265;73096;-61
2023/08/01 04:00:56;;;;;;;2.40;2.20;;;;;;;19.83;100.00;99091.94;104318;1263;61353;-60
2023/08/01 04:03:24;;;;;;;;;;;;;;;19.84;100.00;99094.13;104334;1263;60830;-62
2023/08/01 04:05:51;;;;;;;2.00;1.90;;;;;;;19.86;100.00;99096.27;103861;1264;72161;-62
2023/08/01 04:08:20;;;;;;;2.30;2.20;;;;;;;19.88;100.00;99095.98;103922;1282;69164;-61
2023/08/01 04:10:49;;;;;;;2.00;1.90;;;;;;;19.89;100.00;99095.35;103888;1269;71452;-62
2023/08/01 04:13:17;;;;;;;3.30;2.20;;;;;;;19.90;100.00;99101.95;106544;1263;61589;-62
2023/08/01 04:15:45;;;;;;;2.20;2.10;;;;;;;19.92;100.00;99101.61;106732;1263;60641;-63
2023/08/01 04:18:12;;;;;;;2.00;1.90;;;;;;;19.94;100.00;99104.81;104714;1264;72327;-62
2023/08/01 04:20:40;;;;;;;2.50;2.40;;;;;;;19.94;100.00;99105.70;104128;1274;69357;-61
2023/08/01 04:23:08;;;;;;;2.40;2.20;;;;;;;19.96;100.00;99104.77;104161;1263;72808;-61
2023/08/01 04:25:35;;;;;;;3.80;2.80;;;;;;;19.99;100.00;99105.31;104160;1266;61701;-63
2023/08/01 04:28:03;;;;;;;7.40;2.70;;;;;;;19.99;100.00;99107.02;104769;1266;60126;-65
2023/08/01 04:30:33;;;;;;;4.30;3.00;;;;;;;19.98;100.00;99108.54;104136;1264;73330;-62
2023/08/01 04:33:00;;;;;;;5.70;2.50;;;;;;;19.95;100.00;99110.44;103990;1273;70298;-62
2023/08/01 04:35:28;;;;;;;5.40;2.30;;;;;;;19.89;100.00;99114.52;104344;1273;72756;-62
2023/08/01 04:37:56;;;;;;;16.60;3.00;;;;;;;19.85;100.00;99113.62;104276;1256;61424;-62
2023/08/01 04:40:23;;;;;;;2.30;2.20;;;;;;;19.87;100.00;99114.55;104589;1257;59720;-62
2023/08/01 04:42:51;;;;;;;6.30;2.40;;;;;;;19.92;100.00;99110.11;104474;1257;72817;-62
2023/08/01 04:45:19;;;;;;;;;;;;;;;19.96;100.00;99108.00;104319;1256;69460;-61
2023/08/01 04:47:46;;;;;;;3.10;2.90;;;;;;;20.01;100.00;99109.70;104360;1256;72590;-62
2023/08/01 04:50:14;;;;;;;3.70;3.50;;;;;;;20.06;100.00;99109.27;104332;1257;61345;-63
2023/08/01 04:52:42;;;;;;;;;;;;;;;20.11;100.00;99113.94;104246;1257;60275;-61
2023/08/01 04:55:09;;;;;;;4.10;3.20;;;;;;;20.15;100.00;99119.27;104407;1257;72749;-61
2023/08/01 04:57:37;;;;;;;3.70;3.00;;;;;;;20.14;100.00;99120.29;108037;1256;69718;-62
2023/08/01 05:00:05;;;;;;;3.00;2.90;;;;;;;20.15;100.00;99122.67;108031;1256;72382;-64
2023/08/01 05:02:33;;;;;;;4.90;3.20;;;;;;;20.18;100.00;99125.27;107981;1255;61404;-62
2023/08/01 05:05:00;;;;;;;;;;;;;;;20.26;100.00;99130.80;108200;1256;59240;-62
2023/08/01 05:07:28;;;;;;;4.40;4.00;;;;;;;20.28;100.00;99131.79;108020;1254;73659;-64
2023/08/01 05:09:56;;;;;;;5.70;5.20;;;;;;;20.30;100.00;99132.19;108139;1256;69225;-59
2023/08/01 05:12:23;;;;;;;6.40;5.90;;;;;;;20.39;100.00;99132.94;107934;1254;72487;-63
2023/08/01 05:14:51;;;;;;;6.80;6.30;;;;;;;20.49;100.00;99135.58;107745;1256;61521;-62
2023/08/01 05:17:18;;;;;;;7.00;6.00;;;;;;;20.57;100.00;99135.41;107954;1254;59664;-59
2023/08/01 05:19:46;;;;;;;6.00;5.60;;;;;;;20.64;100.00;99137.13;108008;1254;73002;-59
2023/08/01 05:22:13;;;;;;;6.20;5.60;;;;;;;20.72;100.00;99136.82;108031;1256;70472;-60
2023/08/01 05:24:41;;;;;;;5.20;4.80;;;;;;;20.79;100.00;99135.15;107981;1254;72328;-59
2023/08/01 05:27:09;;;;;;;5.20;4.50;;;;;;;20.90;100.00;99138.20;108163;1257;61506;-59
2023/08/01 05:29:36;;;;;;;;;;;;;;;21.02;100.00;99139.98;108191;1254;59670;-60
2023/08/01 05:32:04;;;;;;;;;;;;;;;21.11;100.00;99138.55;108135;1256;72862;-62
2023/08/01 05:34:31;;;;;;;4.00;3.70;;;;;;;21.19;100.00;99143.52;108024;1254;69512;-60
2023/08/01 05:36:59;;;;;;;4.10;3.80;;;;;;;21.29;100.00;99138.27;107952;1256;71310;-59
2023/08/01 05:39:27;;;;;;;4.00;3.70;;;;;;;21.44;100.00;99137.79;108146;1254;61690;-59
2023/08/01 05:41:54;;;;;;;5.60;3.60;;;;;;;21.58;100.00;99132.29;108123;1255;60110;-59
2023/08/01 05:44:22;;;;;;;4.00;3.80;;;;;;;21.70;100.00;99128.33;108051;1254;72854;-59
2023/08/01 05:46:49;;;;;;;6.20;3.90;;;;;;;21.82;100.00;99122.36;108046;1254;69696;-59
2023/08/01 05:49:17;;;;;;;3.80;3.20;;;;;;;21.92;100.00;99124.89;107991;1256;72350;-59
2023/08/01 05:51:45;;;;;;;3.50;3.30;;;;;;;22.01;100.00;99122.41;108074;1254;61773;-59
2023/08/01 05:54:12;;;;;;;4.30;3.90;;;;;;;22.12;100.00;99127.77;108046;1254;60103;-59
2023/08/01 05:56:40;;;;;;;3.80;3.10;;;;;;;22.21;100.00;99123.48;108064;1257;72023;-59
2023/08/01 05:59:08;;;;;;;4.10;3.60;;;;;;;22.31;100.00;99125.67;108016;1257;70419;-60
2023/08/01 06:01:36;;;;;;;3.20;3.00;;;;;;;22.44;100.00;99129.07;108036;1256;72437;-60
2023/08/01 06:04:03;;;;;;;4.10;3.80;;;;;;;22.58;100.00;99128.91;107889;1256;61393;-62
2023/08/01 06:06:31;;;;;;;;;;;;;;;22.70;100.00;99121.27;107962;1256;59687;-59
2023/08/01 06:08:59;;;;;;;2.70;2.50;;;;;;;22.80;100.00;99120.61;108001;1256;72869;-59
2023/08/01 06:11:26;;;;;;;3.10;2.90;;;;;;;22.91;100.00;99120.05;107990;1254;70221;-60
2023/08/01 06:13:54;;;;;;;;;;;;;;;23.08;100.00;99118.16;107711;1259;73125;-59
2023/08/01 06:16:21;;;;;;;2.20;2.10;;;;;;;23.19;100.00;99118.11;108118;1254;61420;-59
2023/08/01 06:18:52;;;;;;;2.00;1.90;;;;;;;23.26;100.00;99112.03;108059;1254;60362;-60
2023/08/01 06:21:20;;;;;;;;;;;;;;;23.33;100.00;99108.20;108025;1254;72939;-61
2023/08/01 06:23:47;;;;;;;2.00;1.90;;;;;;;23.40;100.00;99103.51;108052;1254;69029;-59
2023/08/01 06:26:15;;;;;;;1.80;1.70;;;;;;;23.45;100.00;99106.65;108034;1254;72202;-59
2023/08/01 06:28:43;;;;;;;;;;;;;;;23.51;100.00;99105.27;108217;1254;62050;-60
2023/08/01 06:31:10;;;;;;;;;;;;;;;23.52;100.00;99100.34;108158;1256;59476;-60
2023/08/01 06:33:38;;;;;;;1.70;1.60;;;;;;;23.61;100.00;99098.89;108309;1254;72854;-60
2023/08/01 06:36:05;;;;;;;;;;;;;;;23.69;100.00;99098.55;108269;1254;69417;-60
2023/08/01 06:38:33;;;;;;;2.80;1.60;;;;;;;23.75;100.00;99092.77;108187;1254;73253;-60
2023/08/01 06:41:01;;;;;;;1.60;1.50;;;;;;;23.80;100.00;99090.66;108112;1254;61695;-59
2023/08/01 06:43:28;;;;;;;1.50;1.40;;;;;;;23.89;100.00;99088.54;108230;1254;59843;-59
2023/08/01 06:45:56;;;;;;;2.00;1.90;;;;;;;24.01;100.00;99092.15;108235;1254;73240;-59
2023/08/01 06:48:24;;;;;;;1.90;1.70;;;;;;;24.06;100.00;99090.34;108257;1254;69211;-60
2023/08/01 06:50:51;;;;;;;2.00;1.90;;;;;;;24.13;100.00;99094.05;108112;1253;72289;-60
2023/08/01 06:53:19;;;;;;;1.90;1.80;;;;;;;24.25;100.00;99090.59;108249;1254;60708;-60
2023/08/01 06:55:47;;;;;;;;;;;;;;;24.37;100.00;99084.45;108179;1254;59754;-59
2023/08/01 06:58:15;;;;;;;1.90;1.80;;;;;;;24.42;100.00;99080.92;108199;1254;73046;-59
2023/08/01 07:00:42;;;;;;;;;;;;;;;24.43;100.00;99082.34;108200;1254;70331;-60
2023/08/01 07:03:10;;;;;;;2.20;1.90;;;;;;;24.50;100.00;99079.86;108316;1254;72432;-59
2023/08/01 07:05:38;;;;;;;;;;;;;;;24.61;100.00;99075.23;108120;1253;61838;-59
2023/08/01 07:08:05;;;;;;;1.60;1.50;;;;;;;24.73;100.00;99071.75;108179;1254;59397;-60
2023/08/01 07:10:36;;;;;;;1.50;1.40;;;;;;;24.82;100.00;99075.23;108172;1256;73326;-59
2023/08/01 07:13:04;;;;;;;1.50;1.20;;;;;;;24.88;100.00;99079.02;108228;1254;69131;-59
2023/08/01 07:15:32;;;;;;;;;;;;;;;24.98;100.00;99075.59;108095;1254;72470;-60
2023/08/01 07:17:59;;;;;;;1.50;1.40;;;;;;;25.04;100.00;99067.59;108062;1254;61457;-59
2023/08/01 07:20:27;;;;;;;2.10;1.30;;;;;;;25.08;100.00;99072.18;108230;1254;60181;-59
2023/08/01 07:22:55;;;;;;;1.60;1.50;;;;;;;25.06;100.00;99073.05;108179;1254;73324;-59
2023/08/01 07:25:22;;;;;;;1.80;1.70;;;;;;;25.10;100.00;99067.23;108120;1254;69229;-60
2023/08/01 07:27:50;;;;;;;;;;;;;;;25.19;100.00;99061.61;108359;1254;72425;-58
2023/08/01 07:30:18;;;;;;;1.10;1.10;;;;;;;25.27;100.00;99063.81;108268;1254;60189;-59
2023/08/01 07:32:47;;;;;;;;;;;;;;;25.32;100.00;99071.41;108193;1256;59689;-59
2023/08/01 07:35:15;;;;;;;1.20;1.10;;;;;;;25.42;100.00;99067.48;108273;1254;73614;-59
2023/08/01 07:37:42;;;;;;;1.00;1.00;;;;;;;25.49;100.00;99076.19;108211;1254;69818;-58
2023/08/01 07:40:10;;;;;;;;;;;;;;;25.55;100.00;99071.92;108208;1254;72279;-59
2023/08/01 07:42:38;;;;;;;1.90;1.10;;;;;;;25.61;100.00;99069.39;108247;1254;61735;-58
2023/08/01 07:45:07;;;;;;;;;;;;;;;25.68;100.00;99069.00;108395;1254;60516;-59
2023/08/01 07:47:34;;;;;;;1.10;1.00;;;;;;;25.77;100.00;99070.45;108199;1254;74512;-58
2023/08/01 07:50:02;;;;;;;1.00;1.00;;;;;;;25.83;100.00;99071.69;108309;1254;70035;-58
2023/08/01 07:52:30;;;;;;;1.20;1.10;;;;;;;25.88;100.00;99069.78;108160;1254;73091;-58
2023/08/01 07:54:58;;;;;;;;;;;;;;;25.88;100.00;99073.45;108207;1254;61807;-58
2023/08/01 07:57:26;;;;;;;0.90;0.90;;;;;;;25.92;100.00;99075.38;108154;1254;59476;-58
2023/08/01 07:59:53;;;;;;;2.70;1.10;;;;;;;25.98;100.00;99076.48;108231;1254;74052;-58
2023/08/01 08:02:21;;;;;;;;;;;;;;;26.04;100.00;99079.06;108233;1254;69097;-59
2023/08/01 08:04:49;;;;;;;0.80;0.80;;;;;;;26.06;100.00;99076.25;107908;1254;72959;-59
2023/08/01 08:07:17;;;;;;;0.90;0.90;;;;;;;26.07;100.00;99074.55;108144;1254;61992;-59
2023/08/01 08:09:45;;;;;;;1.10;1.00;;;;;;;26.10;100.00;99069.16;108230;1254;60120;-59
2023/08/01 08:12:12;;;;;;;;;;;;;;;26.14;100.00;99068.34;108162;1254;74592;-58
2023/08/01 08:14:40;;;;;;;;;;;;;;;26.16;100.00;99064.09;108361;1254;69098;-58
2023/08/01 08:17:10;;;;;;;1.40;1.20;;;;;;;26.20;100.00;99067.77;108037;1254;72356;-59
2023/08/01 08:19:37;;;;;;;1.00;1.00;;;;;;;26.34;100.00;99071.42;108009;1254;61128;-59
2023/08/01 08:22:05;;;;;;;0.70;0.70;;;;;;;26.43;100.00;99067.10;108046;1254;60105;-59
2023/08/01 08:24:33;;;;;;;1.70;0.90;;;;;;;26.46;100.00;99066.15;108008;1254;73598;-59
2023/08/01 08:27:03;;;;;;;1.20;0.90;;;;;;;26.53;100.00;99065.90;107993;1254;69799;-60
2023/08/01 08:32:54;;;;;;;0.90;0.90;;;;;;;26.80;100.00;99064.52;101996;1283;600635;-59
2023/08/01 08:35:22;;;;;;;1.00;1.00;;;;;;;26.85;100.00;99058.67;103809;1267;62379;-59
2023/08/01 08:37:50;;;;;;;1.00;1.00;;;;;;;26.91;100.00;99058.83;103512;1272;59836;-59
2023/08/01 08:40:18;;;;;;;1.40;1.30;;;;;;;26.97;100.00;99057.80;103675;1279;71996;-59
2023/08/01 08:42:45;;;;;;;1.30;1.20;;;;;;;26.97;100.00;99054.15;104050;1260;69160;-59
2023/08/01 08:45:14;;;;;;;1.50;1.40;;;;;;;26.98;100.00;99050.80;104042;1260;72494;-59
2023/08/01 08:47:42;;;;;;;1.00;1.00;;;;;;;27.05;100.00;99046.77;104048;1264;347515;-59
2023/08/01 08:50:10;;;;;;;1.40;1.30;;;;;;;27.12;100.00;99045.31;104367;1260;60468;-59
2023/08/01 08:52:38;;;;;;;;;;;;;;;27.18;100.00;99040.62;104411;1261;72294;-59
2023/08/01 08:55:06;;;;;;;1.00;0.90;;;;;;;27.17;100.00;99038.61;104201;1260;69103;-59
2023/08/01 08:57:34;;;;;;;1.90;1.10;;;;;;;27.26;100.00;99041.52;104406;1258;72334;-60
2023/08/01 09:00:03;;;;;;;;;;;;;;;27.37;100.00;99039.15;104188;1257;60911;-59
2023/08/01 09:02:30;;;;;;;3.30;1.20;;;;;;;27.41;100.00;99031.77;104253;1268;59637;-59
2023/08/01 09:04:58;;;;;;;;;;;;;;;27.46;100.00;99030.41;104713;1265;72783;-59
2023/08/01 09:07:29;;;;;;;4.00;1.40;;;;;;;27.51;100.00;99027.67;104469;1252;69557;-60
2023/08/01 09:09:57;;;;;;;1.40;1.20;;;;;;;27.48;100.00;99026.36;104458;1266;73316;-59
2023/08/01 09:12:24;;;;;;;;;;;;;;;27.42;100.00;99023.30;104340;1253;61415;-60
2023/08/01 09:14:52;;;;;;;1.40;1.30;;;;;;;27.35;100.00;99018.68;105620;1251;60750;-59
2023/08/01 09:17:19;;;;;;;1.20;1.20;;;;;;;27.31;100.00;99019.85;107828;1251;73068;-60
2023/08/01 09:19:47;;;;;;;;;;;;;;;27.30;100.00;99017.30;107576;1254;69072;-60
2023/08/01 09:22:16;;;;;;;;;;;;;;;27.25;100.00;99017.62;105244;1256;71424;-59
2023/08/01 09:24:51;;;;;;;1.70;1.60;;;;;;;27.20;100.00;99022.08;104402;1257;61517;-59
2023/08/01 09:27:21;;;;;;;1.50;1.40;;;;;;;27.18;100.00;99011.81;104821;1254;60956;-59
2023/08/01 09:29:48;;;;;;;2.80;1.70;;;;;;;27.15;100.00;99012.81;104539;1254;73273;-60
2023/08/01 09:32:16;;;;;;;1.90;1.50;;;;;;;27.18;100.00;99011.92;104507;1254;70151;-59
2023/08/01 09:34:44;;;;;;;1.80;1.70;;;;;;;27.29;100.00;99008.23;104461;1270;72856;-61
2023/08/01 09:37:12;;;;;;;1.60;1.50;;;;;;;27.45;100.00;99003.40;104592;1251;61496;-59
2023/08/01 09:39:39;;;;;;;1.40;1.40;;;;;;;27.58;100.00;99003.47;104395;1255;59653;-59
2023/08/01 09:42:07;;;;;;;;;;;;;;;27.66;100.00;99000.27;104394;1256;72812;-60
2023/08/01 09:44:35;;;;;;;;;;;;;;;27.75;100.00;98999.23;104741;1258;70101;-60
2023/08/01 09:47:03;;;;;;;1.10;1.10;;;;;;;27.83;100.00;98998.52;104503;1269;72254;-59
2023/08/01 09:49:31;;;;;;;1.40;1.30;;;;;;;27.80;100.00;98996.73;104400;1253;61388;-59
2023/08/01 09:51:59;;;;;;;;;;;;;;;27.81;100.00;99001.95;104656;1252;59907;-60
2023/08/01 09:54:27;;;;;;;2.40;1.50;;;;;;;27.88;100.00;98996.89;104403;1259;74559;-59
2023/08/01 09:56:55;;;;;;;1.70;1.60;;;;;;;28.00;100.00;98998.71;104368;1257;68392;-59
2023/08/01 09:59:24;;;;;;;1.70;1.60;;;;;;;28.11;100.00;99001.05;104427;1259;72938;-59
2023/08/01 10:01:53;;;;;;;1.60;1.50;;;;;;;28.13;100.00;99001.45;104435;1259;61344;-60
2023/08/01 10:04:24;;;;;;;1.70;1.60;;;;;;;28.04;100.00;98996.38;104346;1264;60016;-59
2023/08/01 10:06:59;;;;;;;1.80;1.70;;;;;;;27.99;100.00;98987.23;104613;1256;73433;-59
2023/08/01 10:09:27;;;;;;;1.80;1.70;;;;;;;28.07;100.00;98991.67;104622;1261;69381;-59
2023/08/01 10:11:57;;;;;;;1.70;1.60;;;;;;;28.07;100.00;98985.47;104772;1252;71181;-58
2023/08/01 10:14:25;;;;;;;1.70;1.60;;;;;;;28.05;100.00;98981.77;104480;1251;61605;-58
2023/08/01 10:16:53;;;;;;;1.40;1.40;;;;;;;28.06;100.00;98979.61;104463;1254;61155;-58
2023/08/01 10:19:21;;;;;;;1.60;1.50;;;;;;;28.07;100.00;98982.70;106562;1251;73499;-60
2023/08/01 10:21:49;;;;;;;2.40;1.50;;;;;;;28.15;100.00;98975.19;105703;1256;69003;-59
2023/08/01 10:24:17;;;;;;;2.90;1.60;;;;;;;28.23;100.00;98970.73;105356;1256;72376;-59
2023/08/01 10:26:46;;;;;;;1.90;1.80;;;;;;;28.30;100.00;98967.86;104680;1259;61385;-59
2023/08/01 10:29:13;;;;;;;2.70;1.40;;;;;;;28.39;100.00;98967.77;104473;1265;60633;-59
2023/08/01 10:31:53;;;;;;;;;;;;;;;28.51;100.00;98962.73;105610;1264;72064;-58
2023/08/01 10:34:21;;;;;;;1.70;1.60;;;;;;;28.60;100.00;98963.67;104692;1253;69099;-59
2023/08/01 10:36:59;;;;;;;2.40;1.60;;;;;;;28.62;100.00;98959.29;104458;1266;72752;-59
2023/08/01 10:39:27;;;;;;;1.70;1.50;;;;;;;28.64;100.00;98958.92;104863;1253;59770;-59
2023/08/01 10:41:59;;;;;;;3.20;2.10;;;;;;;28.67;100.00;98949.66;104985;1253;60807;-60
2023/08/01 10:44:27;;;;;;;2.90;1.90;;;;;;;28.72;100.00;98947.86;104685;1258;73123;-60
2023/08/01 10:46:56;;;;;;;1.70;1.60;;;;;;;28.88;100.00;98953.39;104649;1253;69717;-59
2023/08/01 10:49:34;;;;;;;1.30;1.30;;;;;;;29.00;100.00;98948.44;104433;1257;73443;-62
2023/08/01 10:52:03;;;;;;;1.80;1.70;;;;;;;29.00;100.00;98948.62;104462;1255;59769;-59
2023/08/01 10:54:34;;;;;;;1.70;1.60;;;;;;;28.94;99.19;98945.30;104625;1253;59995;-58
2023/08/01 10:57:02;;;;;;;1.90;1.80;;;;;;;28.81;99.94;98942.11;104469;1253;72911;-58
2023/08/01 10:59:29;;;;;;;1.90;1.80;;;;;;;28.70;98.62;98936.58;104505;1270;70032;-59
2023/08/01 11:01:58;;;;;;;4.00;1.50;;;;;;;28.69;100.00;98935.83;104615;1258;73323;-59
2023/08/01 11:04:25;;;;;;;1.80;1.70;;;;;;;28.77;100.00;98937.14;104742;1251;60023;-60
2023/08/01 11:06:57;;;;;;;;;;;;;;;28.88;100.00;98936.78;104483;1257;59820;-59
2023/08/01 11:09:26;;;;;;;2.80;1.70;;;;;;;28.95;98.86;98935.90;104416;1257;73349;-59
2023/08/01 11:11:55;;;;;;;1.70;1.60;;;;;;;28.94;100.00;98934.10;104392;1253;69421;-59
2023/08/01 11:14:24;;;;;;;1.90;1.80;;;;;;;28.97;99.33;98934.53;104395;1256;72352;-59
2023/08/01 11:16:54;;;;;;;1.90;1.50;;;;;;;29.04;99.36;98932.19;104728;1252;60607;-59
2023/08/01 11:19:28;;;;;;;1.70;1.60;;;;;;;29.09;100.00;98930.66;108518;1251;59694;-60
2023/08/01 11:21:56;;;;;;;3.00;1.60;;;;;;;29.18;99.52;98926.98;106250;1253;72837;-59
2023/08/01 11:24:25;;;;;;;2.80;1.60;;;;;;;29.25;99.70;98926.55;104837;1253;70128;-59
2023/08/01 11:26:53;;;;;;;1.60;1.50;;;;;;;29.27;98.38;98922.38;104438;1253;72334;-59
2023/08/01 11:29:21;;;;;;;1.60;1.50;;;;;;;29.24;97.69;98920.61;104743;1253;60117;-59
2023/08/01 11:31:56;;;;;;;1.70;1.60;;;;;;;29.24;97.30;98916.59;104806;1257;59864;-59
2023/08/01 11:34:24;;;;;;;1.80;1.70;;;;;;;29.37;95.64;98917.73;104527;1256;72903;-59
2023/08/01 11:36:52;;;;;;;1.60;1.50;;;;;;;29.45;92.70;98918.64;104746;1258;70942;-60
2023/08/01 11:39:19;;;;;;;;;;;;;;;29.46;92.62;98908.56;104714;1256;71466;-59
2023/08/01 11:41:47;;;;;;;1.50;1.40;;;;;;;29.52;89.42;98908.02;104640;1253;59869;-60
2023/08/01 11:44:15;;;;;;;;;;;;;;;29.61;91.62;98905.95;104783;1253;60805;-63
2023/08/01 11:46:44;;;;;;;1.60;1.50;;;;;;;29.69;85.69;98900.80;104819;1259;72854;-59
2023/08/01 11:49:13;;;;;;;1.80;1.50;;;;;;;29.68;81.57;98900.38;104629;1269;69128;-59
2023/08/01 11:51:43;;;;;;;1.70;1.60;;;;;;;29.61;84.12;98900.95;104615;1252;72920;-60
2023/08/01 11:54:12;;;;;;;1.60;1.50;;;;;;;29.59;86.59;98896.74;104801;1253;59838;-60
2023/08/01 11:56:41;;;;;;;2.00;1.70;;;;;;;29.63;88.95;98896.66;104470;1253;59816;-60
2023/08/01 11:59:13;;;;;;;1.40;1.30;;;;;;;29.71;87.16;98892.38;104781;1257;73716;-59
2023/08/01 12:01:46;;;;;;;1.60;1.50;;;;;;;29.81;85.54;98888.61;104729;1256;69032;-59
2023/08/01 12:04:27;;;;;;;1.70;1.60;;;;;;;29.91;85.15;98891.02;104646;1253;72485;-60
2023/08/01 12:06:56;;;;;;;2.30;1.70;;;;;;;29.91;82.77;98887.94;104902;1253;60718;-60
2023/08/01 12:09:23;;;;;;;1.80;1.70;;;;;;;29.86;80.98;98886.40;104703;1252;59797;-59
2023/08/01 12:12:00;;;;;;;1.50;1.40;;;;;;;29.81;78.06;98880.98;104884;1253;72905;-60
2023/08/01 12:14:29;;;;;;;1.60;1.50;;;;;;;29.75;79.43;98879.14;104703;1257;69152;-60
2023/08/01 12:16:56;;;;;;;;;;;;;;;29.66;80.84;98875.98;104580;1257;71876;-59
2023/08/01 12:19:24;;;;;;;3.30;1.60;;;;;;;29.62;83.92;98878.20;108371;1252;60154;-60
2023/08/01 12:21:52;;;;;;;2.50;1.70;;;;;;;29.57;88.28;98868.86;107607;1252;59696;-59
2023/08/01 12:24:20;;;;;;;1.90;1.60;;;;;;;29.56;86.52;98867.24;105166;1252;73367;-60
2023/08/01 12:26:48;;;;;;;1.60;1.50;;;;;;;29.58;85.00;98868.16;105138;1252;70082;-59
2023/08/01 12:29:15;;;;;;;1.70;1.60;;;;;;;29.66;84.21;98861.73;105174;1258;75179;-59
2023/08/01 12:31:44;;;;;;;;;;;;;;;29.78;83.55;98861.06;105354;1254;60144;-59
2023/08/01 12:34:11;;;;;;;1.60;1.50;;;;;;;29.89;82.69;98856.30;105030;1253;59683;-58
2023/08/01 12:36:39;;;;;;;;;;;;;;;29.98;82.92;98850.50;104428;1267;73480;-59
2023/08/01 12:39:10;;;;;;;1.20;1.20;;;;;;;30.08;82.53;98849.56;104787;1257;69427;-58
2023/08/01 12:41:38;;;;;;;1.90;1.40;;;;;;;30.15;81.64;98844.92;104691;1252;72508;-59
2023/08/01 12:44:06;;;;;;;2.50;1.60;;;;;;;30.25;81.99;98845.19;104482;1257;60569;-58
2023/08/01 12:46:34;;;;;;;1.70;1.60;;;;;;;30.37;80.41;98843.73;104860;1256;60524;-58
2023/08/01 12:49:02;;;;;;;1.60;1.50;;;;;;;30.43;80.41;98832.23;104725;1263;73750;-58
2023/08/01 12:51:30;;;;;;;1.70;1.60;;;;;;;30.50;81.45;98830.83;104462;1256;69037;-58
2023/08/01 12:53:58;;;;;;;1.50;1.40;;;;;;;30.57;79.12;98831.26;104575;1269;72412;-59
2023/08/01 12:56:26;;;;;;;1.70;1.60;;;;;;;30.54;76.10;98830.94;104860;1252;60660;-58
2023/08/01 12:58:54;;;;;;;1.60;1.50;;;;;;;30.41;74.91;98825.65;105087;1252;60709;-58
2023/08/01 13:01:21;;;;;;;;;;;;;;;30.35;74.54;98823.02;104432;1254;73552;-58
2023/08/01 13:03:49;;;;;;;1.60;1.50;;;;;;;30.30;74.94;98827.45;105009;1253;69059;-58
2023/08/01 13:06:17;;;;;;;1.70;1.60;;;;;;;30.29;78.25;98827.50;104478;1260;72401;-58
2023/08/01 13:08:45;;;;;;;1.90;1.80;;;;;;;30.28;75.49;98828.00;104485;1251;60558;-58
2023/08/01 13:11:13;;;;;;;2.90;1.70;;;;;;;30.18;76.60;98829.54;104530;1256;60650;-58
2023/08/01 13:13:41;;;;;;;1.70;1.50;;;;;;;30.19;76.20;98832.83;104757;1267;73627;-60
2023/08/01 13:16:09;;;;;;;1.30;1.30;;;;;;;30.20;74.45;98829.93;104528;1269;68556;-58
2023/08/01 13:18:43;;;;;;;1.70;1.60;;;;;;;30.25;74.88;98827.30;104302;1256;72499;-58
2023/08/01 13:21:12;;;;;;;1.70;1.60;;;;;;;30.32;74.19;98826.66;108337;1251;59858;-59
2023/08/01 13:23:40;;;;;;;1.80;1.70;;;;;;;30.39;74.02;98825.95;105783;1252;60556;-58
2023/08/01 13:26:08;;;;;;;1.50;1.40;;;;;;;30.47;73.68;98827.92;104812;1252;73689;-59
2023/08/01 13:28:35;;;;;;;1.60;1.50;;;;;;;30.57;73.26;98829.92;105523;1252;69714;-58
2023/08/01 13:31:03;;;;;;;;;;;;;;;30.66;72.57;98831.69;104738;1269;73378;-58
2023/08/01 13:33:31;;;;;;;1.90;1.60;;;;;;;30.70;69.08;98826.91;104890;1253;60170;-58
2023/08/01 13:35:59;;;;;;;1.40;1.30;;;;;;;30.73;72.91;98826.77;104534;1253;60635;-61
2023/08/01 13:38:26;;;;;;;1.70;1.60;;;;;;;30.84;69.48;98825.09;104520;1253;74258;-59
2023/08/01 13:40:59;;;;;;;2.90;1.60;;;;;;;30.89;67.48;98827.64;104538;1253;69134;-58
2023/08/01 13:43:27;;;;;;;1.00;1.00;;;;;;;30.94;67.33;98827.45;104642;1253;73043;-58
2023/08/01 13:45:54;;;;;;;1.50;1.40;;;;;;;31.04;68.89;98832.27;104779;1253;60483;-58
2023/08/01 13:48:22;;;;;;;1.40;1.30;;;;;;;31.12;68.90;98828.80;104392;1258;60461;-62
2023/08/01 13:50:50;;;;;;;1.50;1.40;;;;;;;31.15;67.14;98826.36;104552;1259;73691;-58
2023/08/01 13:53:18;;;;;;;;;;;;;;;31.16;68.44;98832.81;104392;1267;70016;-58
2023/08/01 13:55:46;;;;;;;1.90;1.40;;;;;;;31.10;66.89;98832.86;104372;1254;73363;-63
2023/08/01 15:38:18;;;;;;;1.30;1.30;;;;;;;39.14;40.82;98744.73;101631;1295;601654;-60
2023/08/01 15:40:46;;;;;;;1.00;1.00;;;;;;;40.20;37.47;98741.13;103899;1267;59737;-60
2023/08/01 15:43:14;;;;;;;1.10;1.10;;;;;;;40.77;36.08;98742.33;103858;1266;59932;-61
2023/08/01 15:45:41;;;;;;;1.40;1.30;;;;;;;41.10;34.82;98740.44;103984;1266;72901;-61
2023/08/01 15:48:09;;;;;;;1.30;1.20;;;;;;;41.13;34.46;98737.00;103995;1266;69064;-60
2023/08/01 15:50:37;;;;;;;1.20;1.00;;;;;;;41.44;33.36;98736.56;107034;1265;72909;-59
2023/08/01 15:53:06;;;;;;;1.20;1.20;;;;;;;41.66;32.63;98737.14;107133;1261;251510;-59
2023/08/01 15:55:34;;;;;;;1.50;1.40;;;;;;;41.67;32.17;98734.10;107402;1263;57226;-59
2023/08/01 15:58:01;;;;;;;1.30;1.20;;;;;;;41.38;31.75;98730.66;107417;1261;73262;-58
2023/08/01 16:00:29;;;;;;;1.60;1.30;;;;;;;40.57;32.46;98732.34;107378;1262;69275;-58
2023/08/01 16:02:57;;;;;;;1.10;1.10;;;;;;;39.33;33.77;98740.63;107310;1261;72925;-61
2023/08/01 16:05:24;;;;;;;1.50;1.40;;;;;;;38.07;35.11;98744.02;107307;1262;58949;-61
2023/08/01 16:07:52;;;;;;;1.30;1.30;;;;;;;37.04;36.74;98744.56;107338;1261;60654;-61
2023/08/01 16:10:19;;;;;;;1.20;1.10;;;;;;;36.17;38.71;98744.69;107366;1261;72860;-60
2023/08/01 16:12:47;;;;;;;1.30;1.20;;;;;;;35.37;40.85;98750.31;107366;1261;69539;-60
2023/08/01 16:15:15;;;;;;;1.60;1.50;;;;;;;34.70;43.06;98752.24;107425;1261;72320;-60
2023/08/01 16:17:42;;;;;;;1.40;1.30;;;;;;;34.16;45.12;98751.27;107283;1263;60545;-58
2023/08/01 16:20:10;;;;;;;1.30;1.30;;;;;;;33.65;46.96;98752.92;107299;1261;59667;-58
2023/08/01 16:22:38;;;;;;;1.50;1.40;;;;;;;33.15;48.63;98756.95;107147;1263;73399;-58
2023/08/01 16:25:06;;;;;;;1.40;1.40;;;;;;;32.70;51.49;98759.30;107291;1261;69148;-58
2023/08/01 16:27:35;;;;;;;3.60;1.70;;;;;;;32.30;53.85;98765.17;107126;1263;72494;-58
2023/08/01 16:30:03;;;;;;;1.40;1.30;;;;;;;31.89;56.30;98765.83;107168;1261;60173;-58
2023/08/01 16:32:31;;;;;;;1.50;1.40;;;;;;;31.57;59.79;98770.85;107068;1262;59956;-60
2023/08/01 16:34:58;;;;;;;;;;;;;;;31.29;62.99;98770.98;107292;1264;72864;-60
2023/08/01 16:37:26;;;;;;;1.60;1.50;;;;;;;31.05;66.81;98775.64;107357;1261;69617;-60
2023/08/01 16:39:54;;;;;;;2.70;1.40;;;;;;;30.81;69.33;98781.90;107318;1261;72929;-60